sensor_id;sensor_type;location;lat;lon;timestamp;temperature;humidity
14014;DHT22;49110;52.584;13.408;2023-03-08T00:00:14;3.40;99.90
14014;DHT22;49110;52.584;13.408;2023-03-08T00:01:18;3.40;99.90
14014;DHT22;49110;52.584;13.408;2023-03-08T00:02:19;3.40;99.90
14014;DHT22;49110;52.584;13.408;2023-03-08T00:03:19;3.40;99.90
14014;DHT22;49110;52.584;13.408;2023-03-08T00:04:20;3.40;99.90
14014;DHT22;49110;52.584;13.408;2023-03-08T00:05:20;3.40;99.90
14014;DHT22;49110;52.584;13.408;2023-03-08T00:06:21;3.40;99.90
14014;DHT22;49110;52.584;13.408;2023-03-08T00:07:22;3.40;99.90
14014;DHT22;49110;52.584;13.408;2023-03-08T00:08:23;3.40;99.90
14014;DHT22;49110;52.584;13.408;2023-03-08T00:09:24;3.40;99.90
14014;DHT22;49110;52.584;13.408;2023-03-08T00:10:24;3.40;99.90
14014;DHT22;49110;52.584;13.408;2023-03-08T00:11:26;3.40;99.90
14014;DHT22;49110;52.584;13.408;2023-03-08T00:12:27;3.40;99.90
14014;DHT22;49110;52.584;13.408;2023-03-08T00:13:28;3.40;99.90
14014;DHT22;49110;52.584;13.408;2023-03-08T00:14:28;3.40;99.90
14014;DHT22;49110;52.584;13.408;2023-03-08T00:15:29;3.40;99.90
14014;DHT22;49110;52.584;13.408;2023-03-08T00:16:29;3.40;99.90
14014;DHT22;49110;52.584;13.408;2023-03-08T00:17:29;3.40;99.90
14014;DHT22;49110;52.584;13.408;2023-03-08T00:18:31;3.30;99.90
14014;DHT22;49110;52.584;13.408;2023-03-08T00:19:31;3.40;99.90
14014;DHT22;49110;52.584;13.408;2023-03-08T00:20:32;3.40;99.90
14014;DHT22;49110;52.584;13.408;2023-03-08T00:21:33;3.40;99.90
14014;DHT22;49110;52.584;13.408;2023-03-08T00:22:37;3.40;99.90
14014;DHT22;49110;52.584;13.408;2023-03-08T00:23:38;3.40;99.90
14014;DHT22;49110;52.584;13.408;2023-03-08T00:24:39;3.40;99.90
14014;DHT22;49110;52.584;13.408;2023-03-08T00:25:39;3.40;99.90
14014;DHT22;49110;52.584;13.408;2023-03-08T00:26:40;3.40;99.90
14014;DHT22;49110;52.584;13.408;2023-03-08T00:27:40;3.40;99.90
14014;DHT22;49110;52.584;13.408;2023-03-08T00:28:41;3.40;99.90
14014;DHT22;49110;52.584;13.408;2023-03-08T00:29:41;3.40;99.90
14014;DHT22;49110;52.584;13.408;2023-03-08T00:30:42;3.40;99.90
14014;DHT22;49110;52.584;13.408;2023-03-08T00:31:42;3.40;99.90
14014;DHT22;49110;52.584;13.408;2023-03-08T00:32:42;3.40;99.90
14014;DHT22;49110;52.584;13.408;2023-03-08T00:33:43;3.40;99.90
14014;DHT22;49110;52.584;13.408;2023-03-08T00:34:43;3.40;99.90
14014;DHT22;49110;52.584;13.408;2023-03-08T00:35:57;3.30;99.90
14014;DHT22;49110;52.584;13.408;2023-03-08T00:36:58;3.30;99.90
14014;DHT22;49110;52.584;13.408;2023-03-08T00:37:58;3.30;99.90
14014;DHT22;49110;52.584;13.408;2023-03-08T00:38:59;3.30;99.90
14014;DHT22;49110;52.584;13.408;2023-03-08T00:39:59;3.30;99.90
14014;DHT22;49110;52.584;13.408;2023-03-08T00:41:00;3.20;99.90
14014;DHT22;49110;52.584;13.408;2023-03-08T00:42:00;3.30;99.90
14014;DHT22;49110;52.584;13.408;2023-03-08T00:43:01;3.20;99.90
14014;DHT22;49110;52.584;13.408;2023-03-08T00:44:02;3.20;99.90
14014;DHT22;49110;52.584;13.408;2023-03-08T00:45:02;3.20;99.90
14014;DHT22;49110;52.584;13.408;2023-03-08T00:46:04;3.20;99.90
14014;DHT22;49110;52.584;13.408;2023-03-08T00:47:05;3.20;99.90
14014;DHT22;49110;52.584;13.408;2023-03-08T00:48:05;3.20;99.90
14014;DHT22;49110;52.584;13.408;2023-03-08T00:49:06;3.20;99.90
14014;DHT22;49110;52.584;13.408;2023-03-08T00:50:07;3.20;99.90
14014;DHT22;49110;52.584;13.408;2023-03-08T00:51:09;3.20;99.90
14014;DHT22;49110;52.584;13.408;2023-03-08T00:52:11;3.20;99.90
14014;DHT22;49110;52.584;13.408;2023-03-08T00:53:11;3.20;99.90
14014;DHT22;49110;52.584;13.408;2023-03-08T00:54:12;3.20;99.90
14014;DHT22;49110;52.584;13.408;2023-03-08T00:55:12;3.20;99.90
14014;DHT22;49110;52.584;13.408;2023-03-08T00:56:13;3.10;99.90
14014;DHT22;49110;52.584;13.408;2023-03-08T00:57:13;3.10;99.90
14014;DHT22;49110;52.584;13.408;2023-03-08T00:58:15;3.10;99.90
14014;DHT22;49110;52.584;13.408;2023-03-08T00:59:16;3.10;99.90
14014;DHT22;49110;52.584;13.408;2023-03-08T01:00:17;3.10;99.90
14014;DHT22;49110;52.584;13.408;2023-03-08T01:01:18;3.10;99.90
14014;DHT22;49110;52.584;13.408;2023-03-08T01:02:19;3.10;99.90
14014;DHT22;49110;52.584;13.408;2023-03-08T01:03:20;3.10;99.90
14014;DHT22;49110;52.584;13.408;2023-03-08T01:04:21;3.10;99.90
14014;DHT22;49110;52.584;13.408;2023-03-08T01:05:22;3.10;99.90
14014;DHT22;49110;52.584;13.408;2023-03-08T01:06:23;3.10;99.90
14014;DHT22;49110;52.584;13.408;2023-03-08T01:07:23;3.10;99.90
14014;DHT22;49110;52.584;13.408;2023-03-08T01:08:25;3.10;99.90
14014;DHT22;49110;52.584;13.408;2023-03-08T01:09:26;3.10;99.90
14014;DHT22;49110;52.584;13.408;2023-03-08T01:10:26;3.10;99.90
14014;DHT22;49110;52.584;13.408;2023-03-08T01:11:27;3.10;99.90
14014;DHT22;49110;52.584;13.408;2023-03-08T01:12:27;3.10;99.90
14014;DHT22;49110;52.584;13.408;2023-03-08T01:13:30;3.10;99.90
14014;DHT22;49110;52.584;13.408;2023-03-08T01:14:31;3.10;99.90
14014;DHT22;49110;52.584;13.408;2023-03-08T01:15:36;3.10;99.90
14014;DHT22;49110;52.584;13.408;2023-03-08T01:16:37;3.10;99.90
14014;DHT22;49110;52.584;13.408;2023-03-08T01:17:37;3.10;99.90
14014;DHT22;49110;52.584;13.408;2023-03-08T01:18:38;3.10;99.90
14014;DHT22;49110;52.584;13.408;2023-03-08T01:19:38;3.10;99.90
14014;DHT22;49110;52.584;13.408;2023-03-08T01:20:39;3.10;99.90
14014;DHT22;49110;52.584;13.408;2023-03-08T01:21:39;3.00;99.90
14014;DHT22;49110;52.584;13.408;2023-03-08T01:22:40;3.10;99.90
14014;DHT22;49110;52.584;13.408;2023-03-08T01:23:41;3.00;99.90
14014;DHT22;49110;52.584;13.408;2023-03-08T01:24:45;3.00;99.90
14014;DHT22;49110;52.584;13.408;2023-03-08T01:25:46;3.00;99.90
14014;DHT22;49110;52.584;13.408;2023-03-08T01:26:47;3.00;99.90
14014;DHT22;49110;52.584;13.408;2023-03-08T01:27:47;3.00;99.90
14014;DHT22;49110;52.584;13.408;2023-03-08T01:28:48;2.90;99.90
14014;DHT22;49110;52.584;13.408;2023-03-08T01:29:49;3.00;99.90
14014;DHT22;49110;52.584;13.408;2023-03-08T01:30:49;3.00;99.90
14014;DHT22;49110;52.584;13.408;2023-03-08T01:31:50;3.00;99.90
14014;DHT22;49110;52.584;13.408;2023-03-08T01:32:50;2.90;99.90
14014;DHT22;49110;52.584;13.408;2023-03-08T01:33:51;2.90;99.90
14014;DHT22;49110;52.584;13.408;2023-03-08T01:34:51;2.90;99.90
14014;DHT22;49110;52.584;13.408;2023-03-08T01:35:52;2.90;99.90
14014;DHT22;49110;52.584;13.408;2023-03-08T01:36:52;2.90;99.90
14014;DHT22;49110;52.584;13.408;2023-03-08T01:37:53;2.90;99.90
14014;DHT22;49110;52.584;13.408;2023-03-08T01:38:54;2.90;99.90
14014;DHT22;49110;52.584;13.408;2023-03-08T01:39:54;3.00;99.90
14014;DHT22;49110;52.584;13.408;2023-03-08T01:40:59;3.00;99.90
14014;DHT22;49110;52.584;13.408;2023-03-08T01:42:03;2.90;99.90
14014;DHT22;49110;52.584;13.408;2023-03-08T01:43:27;2.90;99.90
14014;DHT22;49110;52.584;13.408;2023-03-08T01:44:28;3.00;99.90
14014;DHT22;49110;52.584;13.408;2023-03-08T01:46:05;3.00;99.90
14014;DHT22;49110;52.584;13.408;2023-03-08T01:47:12;2.90;99.90
14014;DHT22;49110;52.584;13.408;2023-03-08T01:48:16;2.90;99.90
14014;DHT22;49110;52.584;13.408;2023-03-08T01:49:27;2.90;99.90
14014;DHT22;49110;52.584;13.408;2023-03-08T01:50:29;3.00;99.90
14014;DHT22;49110;52.584;13.408;2023-03-08T01:51:36;2.90;99.90
14014;DHT22;49110;52.584;13.408;2023-03-08T01:52:42;2.90;99.90
14014;DHT22;49110;52.584;13.408;2023-03-08T01:53:46;2.90;99.90
14014;DHT22;49110;52.584;13.408;2023-03-08T01:54:48;2.90;99.90
14014;DHT22;49110;52.584;13.408;2023-03-08T01:55:50;2.90;99.90
14014;DHT22;49110;52.584;13.408;2023-03-08T01:56:53;2.90;99.90
14014;DHT22;49110;52.584;13.408;2023-03-08T01:57:54;2.90;99.90
14014;DHT22;49110;52.584;13.408;2023-03-08T01:58:56;2.90;99.90
14014;DHT22;49110;52.584;13.408;2023-03-08T02:00:16;2.90;99.90
14014;DHT22;49110;52.584;13.408;2023-03-08T02:01:19;2.90;99.90
14014;DHT22;49110;52.584;13.408;2023-03-08T02:02:23;2.80;99.90
14014;DHT22;49110;52.584;13.408;2023-03-08T02:03:25;2.90;99.90
14014;DHT22;49110;52.584;13.408;2023-03-08T02:04:26;2.90;99.90
14014;DHT22;49110;52.584;13.408;2023-03-08T02:05:26;2.90;99.90
14014;DHT22;49110;52.584;13.408;2023-03-08T02:06:28;2.90;99.90
14014;DHT22;49110;52.584;13.408;2023-03-08T02:07:29;2.90;99.90
14014;DHT22;49110;52.584;13.408;2023-03-08T02:08:31;2.90;99.90
14014;DHT22;49110;52.584;13.408;2023-03-08T02:09:32;2.80;99.90
14014;DHT22;49110;52.584;13.408;2023-03-08T02:10:32;2.90;99.90
14014;DHT22;49110;52.584;13.408;2023-03-08T02:11:35;2.90;99.90
14014;DHT22;49110;52.584;13.408;2023-03-08T02:12:38;2.80;99.90
14014;DHT22;49110;52.584;13.408;2023-03-08T02:13:40;2.80;99.90
14014;DHT22;49110;52.584;13.408;2023-03-08T02:14:42;2.80;99.90
14014;DHT22;49110;52.584;13.408;2023-03-08T02:15:43;2.80;99.90
14014;DHT22;49110;52.584;13.408;2023-03-08T02:16:43;2.80;99.90
14014;DHT22;49110;52.584;13.408;2023-03-08T02:17:44;2.80;99.90
14014;DHT22;49110;52.584;13.408;2023-03-08T02:18:51;2.80;99.90
14014;DHT22;49110;52.584;13.408;2023-03-08T02:19:56;2.80;99.90
14014;DHT22;49110;52.584;13.408;2023-03-08T02:20:59;2.80;99.90
14014;DHT22;49110;52.584;13.408;2023-03-08T02:22:10;2.80;99.90
14014;DHT22;49110;52.584;13.408;2023-03-08T02:23:17;2.80;99.90
14014;DHT22;49110;52.584;13.408;2023-03-08T02:24:20;2.70;99.90
14014;DHT22;49110;52.584;13.408;2023-03-08T02:25:24;2.80;99.90
14014;DHT22;49110;52.584;13.408;2023-03-08T02:26:25;2.80;99.90
14014;DHT22;49110;52.584;13.408;2023-03-08T02:27:26;2.70;99.90
14014;DHT22;49110;52.584;13.408;2023-03-08T02:28:27;2.70;99.90
14014;DHT22;49110;52.584;13.408;2023-03-08T02:29:28;2.80;99.90
14014;DHT22;49110;52.584;13.408;2023-03-08T02:30:32;2.70;99.90
14014;DHT22;49110;52.584;13.408;2023-03-08T02:31:33;2.70;99.90
14014;DHT22;49110;52.584;13.408;2023-03-08T02:32:34;2.70;99.90
14014;DHT22;49110;52.584;13.408;2023-03-08T02:33:34;2.70;99.90
14014;DHT22;49110;52.584;13.408;2023-03-08T02:34:35;2.70;99.90
14014;DHT22;49110;52.584;13.408;2023-03-08T02:35:36;2.70;99.90
14014;DHT22;49110;52.584;13.408;2023-03-08T02:36:38;2.60;99.90
14014;DHT22;49110;52.584;13.408;2023-03-08T02:37:38;2.70;99.90
14014;DHT22;49110;52.584;13.408;2023-03-08T02:38:39;2.70;99.90
14014;DHT22;49110;52.584;13.408;2023-03-08T02:39:39;2.70;99.90
14014;DHT22;49110;52.584;13.408;2023-03-08T02:40:40;2.60;99.90
14014;DHT22;49110;52.584;13.408;2023-03-08T02:41:40;2.70;99.90
14014;DHT22;49110;52.584;13.408;2023-03-08T02:42:41;2.70;99.90
14014;DHT22;49110;52.584;13.408;2023-03-08T02:43:41;2.70;99.90
14014;DHT22;49110;52.584;13.408;2023-03-08T02:44:42;2.70;99.90
14014;DHT22;49110;52.584;13.408;2023-03-08T02:45:42;2.70;99.90
14014;DHT22;49110;52.584;13.408;2023-03-08T02:46:43;2.70;99.90
14014;DHT22;49110;52.584;13.408;2023-03-08T02:47:43;2.70;99.90
14014;DHT22;49110;52.584;13.408;2023-03-08T02:48:44;2.70;99.90
14014;DHT22;49110;52.584;13.408;2023-03-08T02:49:45;2.70;99.90
14014;DHT22;49110;52.584;13.408;2023-03-08T02:50:45;2.70;99.90
14014;DHT22;49110;52.584;13.408;2023-03-08T02:51:46;2.70;99.90
14014;DHT22;49110;52.584;13.408;2023-03-08T02:52:46;2.70;99.90
14014;DHT22;49110;52.584;13.408;2023-03-08T02:53:47;2.70;99.90
14014;DHT22;49110;52.584;13.408;2023-03-08T02:54:47;2.70;99.90
14014;DHT22;49110;52.584;13.408;2023-03-08T02:55:48;2.70;99.90
14014;DHT22;49110;52.584;13.408;2023-03-08T02:56:48;2.70;99.90
14014;DHT22;49110;52.584;13.408;2023-03-08T02:57:49;2.70;99.90
14014;DHT22;49110;52.584;13.408;2023-03-08T02:58:49;2.70;99.90
14014;DHT22;49110;52.584;13.408;2023-03-08T02:59:50;2.70;99.90
14014;DHT22;49110;52.584;13.408;2023-03-08T03:00:50;2.70;99.90
14014;DHT22;49110;52.584;13.408;2023-03-08T03:01:51;2.70;99.90
14014;DHT22;49110;52.584;13.408;2023-03-08T03:02:52;2.70;99.90
14014;DHT22;49110;52.584;13.408;2023-03-08T03:03:53;2.80;99.90
14014;DHT22;49110;52.584;13.408;2023-03-08T03:04:54;2.80;99.90
14014;DHT22;49110;52.584;13.408;2023-03-08T03:05:54;2.90;99.90
14014;DHT22;49110;52.584;13.408;2023-03-08T03:06:56;2.90;99.90
14014;DHT22;49110;52.584;13.408;2023-03-08T03:07:56;3.00;99.90
14014;DHT22;49110;52.584;13.408;2023-03-08T03:08:57;3.00;99.90
14014;DHT22;49110;52.584;13.408;2023-03-08T03:09:58;3.00;99.90
14014;DHT22;49110;52.584;13.408;2023-03-08T03:10:58;3.00;99.90
14014;DHT22;49110;52.584;13.408;2023-03-08T03:11:59;3.00;99.90
14014;DHT22;49110;52.584;13.408;2023-03-08T03:12:59;3.10;99.90
14014;DHT22;49110;52.584;13.408;2023-03-08T03:14:00;3.10;99.90
14014;DHT22;49110;52.584;13.408;2023-03-08T03:15:02;3.10;99.90
14014;DHT22;49110;52.584;13.408;2023-03-08T03:16:15;3.20;99.90
14014;DHT22;49110;52.584;13.408;2023-03-08T03:17:16;3.20;99.90
14014;DHT22;49110;52.584;13.408;2023-03-08T03:18:16;3.10;99.90
14014;DHT22;49110;52.584;13.408;2023-03-08T03:19:17;3.10;99.90
14014;DHT22;49110;52.584;13.408;2023-03-08T03:20:17;3.10;99.90
14014;DHT22;49110;52.584;13.408;2023-03-08T03:21:18;3.10;99.90
14014;DHT22;49110;52.584;13.408;2023-03-08T03:22:19;3.10;99.90
14014;DHT22;49110;52.584;13.408;2023-03-08T03:23:19;3.10;99.90
14014;DHT22;49110;52.584;13.408;2023-03-08T03:24:20;3.20;99.90
14014;DHT22;49110;52.584;13.408;2023-03-08T03:25:20;3.20;99.90
14014;DHT22;49110;52.584;13.408;2023-03-08T03:26:21;3.20;99.90
14014;DHT22;49110;52.584;13.408;2023-03-08T03:27:22;3.20;99.90
14014;DHT22;49110;52.584;13.408;2023-03-08T03:28:23;3.20;99.90
14014;DHT22;49110;52.584;13.408;2023-03-08T03:29:23;3.30;99.90
14014;DHT22;49110;52.584;13.408;2023-03-08T03:30:23;3.20;99.90
14014;DHT22;49110;52.584;13.408;2023-03-08T03:31:25;3.30;99.90
14014;DHT22;49110;52.584;13.408;2023-03-08T03:32:26;3.30;99.90
14014;DHT22;49110;52.584;13.408;2023-03-08T03:33:27;3.30;99.90
14014;DHT22;49110;52.584;13.408;2023-03-08T03:34:27;3.30;99.90
14014;DHT22;49110;52.584;13.408;2023-03-08T03:35:29;3.30;99.90
14014;DHT22;49110;52.584;13.408;2023-03-08T03:36:29;3.30;99.90
14014;DHT22;49110;52.584;13.408;2023-03-08T03:37:30;3.30;99.90
14014;DHT22;49110;52.584;13.408;2023-03-08T03:38:31;3.40;99.90
14014;DHT22;49110;52.584;13.408;2023-03-08T03:39:36;3.40;99.90
14014;DHT22;49110;52.584;13.408;2023-03-08T03:40:36;3.40;99.90
14014;DHT22;49110;52.584;13.408;2023-03-08T03:41:36;3.40;99.90
14014;DHT22;49110;52.584;13.408;2023-03-08T03:42:37;3.40;99.90
14014;DHT22;49110;52.584;13.408;2023-03-08T03:43:38;3.40;99.90
14014;DHT22;49110;52.584;13.408;2023-03-08T03:44:38;3.40;99.90
14014;DHT22;49110;52.584;13.408;2023-03-08T03:45:39;3.40;99.90
14014;DHT22;49110;52.584;13.408;2023-03-08T03:46:39;3.40;99.90
14014;DHT22;49110;52.584;13.408;2023-03-08T03:47:40;3.40;99.90
14014;DHT22;49110;52.584;13.408;2023-03-08T03:48:40;3.40;99.90
14014;DHT22;49110;52.584;13.408;2023-03-08T03:49:41;3.40;99.90
14014;DHT22;49110;52.584;13.408;2023-03-08T03:50:41;3.40;99.90
14014;DHT22;49110;52.584;13.408;2023-03-08T03:51:42;3.40;99.90
14014;DHT22;49110;52.584;13.408;2023-03-08T03:52:42;3.30;99.90
14014;DHT22;49110;52.584;13.408;2023-03-08T03:53:43;3.30;99.90
14014;DHT22;49110;52.584;13.408;2023-03-08T03:54:44;3.30;99.90
14014;DHT22;49110;52.584;13.408;2023-03-08T03:55:44;3.30;99.90
14014;DHT22;49110;52.584;13.408;2023-03-08T03:56:45;3.30;99.90
14014;DHT22;49110;52.584;13.408;2023-03-08T03:57:45;3.30;99.90
14014;DHT22;49110;52.584;13.408;2023-03-08T03:58:47;3.20;99.90
14014;DHT22;49110;52.584;13.408;2023-03-08T03:59:47;3.20;99.90
14014;DHT22;49110;52.584;13.408;2023-03-08T04:00:48;3.20;99.90
14014;DHT22;49110;52.584;13.408;2023-03-08T04:01:48;3.30;99.90
14014;DHT22;49110;52.584;13.408;2023-03-08T04:02:49;3.30;99.90
14014;DHT22;49110;52.584;13.408;2023-03-08T04:03:50;3.30;99.90
14014;DHT22;49110;52.584;13.408;2023-03-08T04:04:50;3.30;99.90
14014;DHT22;49110;52.584;13.408;2023-03-08T04:05:51;3.30;99.90
14014;DHT22;49110;52.584;13.408;2023-03-08T04:06:52;3.40;99.90
14014;DHT22;49110;52.584;13.408;2023-03-08T04:07:52;3.30;99.90
14014;DHT22;49110;52.584;13.408;2023-03-08T04:08:55;3.30;99.90
14014;DHT22;49110;52.584;13.408;2023-03-08T04:09:55;3.30;99.90
14014;DHT22;49110;52.584;13.408;2023-03-08T04:10:59;3.30;99.90
14014;DHT22;49110;52.584;13.408;2023-03-08T04:12:00;3.30;99.90
14014;DHT22;49110;52.584;13.408;2023-03-08T04:13:04;3.30;99.90
14014;DHT22;49110;52.584;13.408;2023-03-08T04:14:05;3.20;99.90
14014;DHT22;49110;52.584;13.408;2023-03-08T04:15:07;3.30;99.90
14014;DHT22;49110;52.584;13.408;2023-03-08T04:16:12;3.20;99.90
14014;DHT22;49110;52.584;13.408;2023-03-08T04:17:12;3.20;99.90
14014;DHT22;49110;52.584;13.408;2023-03-08T04:18:13;3.30;99.90
14014;DHT22;49110;52.584;13.408;2023-03-08T04:19:13;3.30;99.90
14014;DHT22;49110;52.584;13.408;2023-03-08T04:20:14;3.30;99.90
14014;DHT22;49110;52.584;13.408;2023-03-08T04:21:15;3.30;99.90
14014;DHT22;49110;52.584;13.408;2023-03-08T04:22:15;3.40;99.90
14014;DHT22;49110;52.584;13.408;2023-03-08T04:23:16;3.30;99.90
14014;DHT22;49110;52.584;13.408;2023-03-08T04:24:16;3.30;99.90
14014;DHT22;49110;52.584;13.408;2023-03-08T04:25:17;3.30;99.90
14014;DHT22;49110;52.584;13.408;2023-03-08T04:26:19;3.30;99.90
14014;DHT22;49110;52.584;13.408;2023-03-08T04:27:19;3.40;99.90
14014;DHT22;49110;52.584;13.408;2023-03-08T04:28:20;3.40;99.90
14014;DHT22;49110;52.584;13.408;2023-03-08T04:29:20;3.40;99.90
14014;DHT22;49110;52.584;13.408;2023-03-08T04:30:21;3.40;99.90
14014;DHT22;49110;52.584;13.408;2023-03-08T04:31:26;3.40;99.90
14014;DHT22;49110;52.584;13.408;2023-03-08T04:32:27;3.40;99.90
14014;DHT22;49110;52.584;13.408;2023-03-08T04:33:29;3.30;99.90
14014;DHT22;49110;52.584;13.408;2023-03-08T04:34:30;3.20;99.90
14014;DHT22;49110;52.584;13.408;2023-03-08T04:35:30;3.30;99.90
14014;DHT22;49110;52.584;13.408;2023-03-08T04:36:31;3.30;99.90
14014;DHT22;49110;52.584;13.408;2023-03-08T04:37:32;3.30;99.90
14014;DHT22;49110;52.584;13.408;2023-03-08T04:38:32;3.30;99.90
14014;DHT22;49110;52.584;13.408;2023-03-08T04:39:33;3.30;99.90
14014;DHT22;49110;52.584;13.408;2023-03-08T04:40:34;3.30;99.90
14014;DHT22;49110;52.584;13.408;2023-03-08T04:41:54;3.40;99.90
14014;DHT22;49110;52.584;13.408;2023-03-08T04:42:55;3.40;99.90
14014;DHT22;49110;52.584;13.408;2023-03-08T04:43:56;3.40;99.90
14014;DHT22;49110;52.584;13.408;2023-03-08T04:44:57;3.40;99.90
14014;DHT22;49110;52.584;13.408;2023-03-08T04:45:58;3.40;99.90
14014;DHT22;49110;52.584;13.408;2023-03-08T04:46:58;3.50;99.90
14014;DHT22;49110;52.584;13.408;2023-03-08T04:47:59;3.40;99.90
14014;DHT22;49110;52.584;13.408;2023-03-08T04:48:59;3.40;99.90
14014;DHT22;49110;52.584;13.408;2023-03-08T04:50:00;3.40;99.90
14014;DHT22;49110;52.584;13.408;2023-03-08T04:51:02;3.30;99.90
14014;DHT22;49110;52.584;13.408;2023-03-08T04:52:03;3.20;99.90
14014;DHT22;49110;52.584;13.408;2023-03-08T04:53:04;3.20;99.90
14014;DHT22;49110;52.584;13.408;2023-03-08T04:54:05;3.20;99.90
14014;DHT22;49110;52.584;13.408;2023-03-08T04:55:06;3.10;99.90
14014;DHT22;49110;52.584;13.408;2023-03-08T04:56:07;3.10;99.90
14014;DHT22;49110;52.584;13.408;2023-03-08T04:57:08;3.00;99.90
14014;DHT22;49110;52.584;13.408;2023-03-08T04:58:08;3.00;99.90
14014;DHT22;49110;52.584;13.408;2023-03-08T04:59:09;3.00;99.90
14014;DHT22;49110;52.584;13.408;2023-03-08T05:00:10;3.00;99.90
14014;DHT22;49110;52.584;13.408;2023-03-08T05:01:14;2.90;99.90
14014;DHT22;49110;52.584;13.408;2023-03-08T05:02:15;2.90;99.90
14014;DHT22;49110;52.584;13.408;2023-03-08T05:03:15;2.90;99.90
14014;DHT22;49110;52.584;13.408;2023-03-08T05:04:16;2.90;99.90
14014;DHT22;49110;52.584;13.408;2023-03-08T05:05:17;2.80;99.90
14014;DHT22;49110;52.584;13.408;2023-03-08T05:06:19;2.80;99.90
14014;DHT22;49110;52.584;13.408;2023-03-08T05:07:19;2.80;99.90
14014;DHT22;49110;52.584;13.408;2023-03-08T05:08:22;2.80;99.90
14014;DHT22;49110;52.584;13.408;2023-03-08T05:09:22;2.80;99.90
14014;DHT22;49110;52.584;13.408;2023-03-08T05:10:23;2.70;99.90
14014;DHT22;49110;52.584;13.408;2023-03-08T05:11:26;2.80;99.90
14014;DHT22;49110;52.584;13.408;2023-03-08T05:12:26;2.80;99.90
14014;DHT22;49110;52.584;13.408;2023-03-08T05:13:32;2.90;99.90
14014;DHT22;49110;52.584;13.408;2023-03-08T05:14:32;2.90;99.90
14014;DHT22;49110;52.584;13.408;2023-03-08T05:15:33;2.90;99.90
14014;DHT22;49110;52.584;13.408;2023-03-08T05:16:33;3.00;99.90
14014;DHT22;49110;52.584;13.408;2023-03-08T05:17:34;3.00;99.90
14014;DHT22;49110;52.584;13.408;2023-03-08T05:18:35;3.10;99.90
14014;DHT22;49110;52.584;13.408;2023-03-08T05:19:35;3.10;99.90
14014;DHT22;49110;52.584;13.408;2023-03-08T05:20:36;3.10;99.90
14014;DHT22;49110;52.584;13.408;2023-03-08T05:21:37;3.10;99.90
14014;DHT22;49110;52.584;13.408;2023-03-08T05:22:37;3.10;99.90
14014;DHT22;49110;52.584;13.408;2023-03-08T05:23:38;3.10;99.90
14014;DHT22;49110;52.584;13.408;2023-03-08T05:24:39;3.10;99.90
14014;DHT22;49110;52.584;13.408;2023-03-08T05:25:41;3.10;99.90
14014;DHT22;49110;52.584;13.408;2023-03-08T05:26:42;3.20;99.90
14014;DHT22;49110;52.584;13.408;2023-03-08T05:27:43;3.10;99.90
14014;DHT22;49110;52.584;13.408;2023-03-08T05:28:44;3.10;99.90
14014;DHT22;49110;52.584;13.408;2023-03-08T05:29:44;3.10;99.90
14014;DHT22;49110;52.584;13.408;2023-03-08T05:30:45;3.10;99.90
14014;DHT22;49110;52.584;13.408;2023-03-08T05:31:48;3.10;99.90
14014;DHT22;49110;52.584;13.408;2023-03-08T05:32:49;3.10;99.90
14014;DHT22;49110;52.584;13.408;2023-03-08T05:33:50;3.10;99.90
14014;DHT22;49110;52.584;13.408;2023-03-08T05:34:52;3.00;99.90
14014;DHT22;49110;52.584;13.408;2023-03-08T05:35:53;3.00;99.90
14014;DHT22;49110;52.584;13.408;2023-03-08T05:36:56;3.00;99.90
14014;DHT22;49110;52.584;13.408;2023-03-08T05:37:56;3.00;99.90
14014;DHT22;49110;52.584;13.408;2023-03-08T05:38:57;3.00;99.90
14014;DHT22;49110;52.584;13.408;2023-03-08T05:39:57;3.00;99.90
14014;DHT22;49110;52.584;13.408;2023-03-08T05:41:03;3.00;99.90
14014;DHT22;49110;52.584;13.408;2023-03-08T05:42:04;3.00;99.90
14014;DHT22;49110;52.584;13.408;2023-03-08T05:43:05;3.00;99.90
14014;DHT22;49110;52.584;13.408;2023-03-08T05:44:05;3.10;99.90
14014;DHT22;49110;52.584;13.408;2023-03-08T05:45:07;3.10;99.90
14014;DHT22;49110;52.584;13.408;2023-03-08T05:46:11;3.10;99.90
14014;DHT22;49110;52.584;13.408;2023-03-08T05:47:12;3.10;99.90
14014;DHT22;49110;52.584;13.408;2023-03-08T05:48:13;3.10;99.90
14014;DHT22;49110;52.584;13.408;2023-03-08T05:49:14;3.10;99.90
14014;DHT22;49110;52.584;13.408;2023-03-08T05:50:15;3.10;99.90
14014;DHT22;49110;52.584;13.408;2023-03-08T05:51:17;3.10;99.90
14014;DHT22;49110;52.584;13.408;2023-03-08T05:52:17;3.10;99.90
14014;DHT22;49110;52.584;13.408;2023-03-08T05:53:19;3.10;99.90
14014;DHT22;49110;52.584;13.408;2023-03-08T05:54:20;3.10;99.90
14014;DHT22;49110;52.584;13.408;2023-03-08T05:55:20;3.10;99.90
14014;DHT22;49110;52.584;13.408;2023-03-08T05:56:22;3.10;99.90
14014;DHT22;49110;52.584;13.408;2023-03-08T05:57:23;3.10;99.90
14014;DHT22;49110;52.584;13.408;2023-03-08T05:58:23;3.10;99.90
14014;DHT22;49110;52.584;13.408;2023-03-08T05:59:24;3.20;99.90
14014;DHT22;49110;52.584;13.408;2023-03-08T06:00:26;3.20;99.90
14014;DHT22;49110;52.584;13.408;2023-03-08T06:01:27;3.20;99.90
14014;DHT22;49110;52.584;13.408;2023-03-08T06:02:27;3.20;99.90
14014;DHT22;49110;52.584;13.408;2023-03-08T06:03:28;3.20;99.90
14014;DHT22;49110;52.584;13.408;2023-03-08T06:04:28;3.20;99.90
14014;DHT22;49110;52.584;13.408;2023-03-08T06:05:30;3.20;99.90
14014;DHT22;49110;52.584;13.408;2023-03-08T06:06:30;3.20;99.90
14014;DHT22;49110;52.584;13.408;2023-03-08T06:07:31;3.20;99.90
14014;DHT22;49110;52.584;13.408;2023-03-08T06:08:31;3.20;99.90
14014;DHT22;49110;52.584;13.408;2023-03-08T06:09:32;3.20;99.90
14014;DHT22;49110;52.584;13.408;2023-03-08T06:10:33;3.20;99.90
14014;DHT22;49110;52.584;13.408;2023-03-08T06:11:33;3.20;99.90
14014;DHT22;49110;52.584;13.408;2023-03-08T06:12:34;3.20;99.90
14014;DHT22;49110;52.584;13.408;2023-03-08T06:13:34;3.20;99.90
14014;DHT22;49110;52.584;13.408;2023-03-08T06:14:35;3.20;99.90
14014;DHT22;49110;52.584;13.408;2023-03-08T06:15:35;3.20;99.90
14014;DHT22;49110;52.584;13.408;2023-03-08T06:16:36;3.20;99.90
14014;DHT22;49110;52.584;13.408;2023-03-08T06:17:36;3.20;99.90
14014;DHT22;49110;52.584;13.408;2023-03-08T06:18:38;3.20;99.90
14014;DHT22;49110;52.584;13.408;2023-03-08T06:19:39;3.20;99.90
14014;DHT22;49110;52.584;13.408;2023-03-08T06:20:40;3.20;99.90
14014;DHT22;49110;52.584;13.408;2023-03-08T06:21:40;3.20;99.90
14014;DHT22;49110;52.584;13.408;2023-03-08T06:22:41;3.10;99.90
14014;DHT22;49110;52.584;13.408;2023-03-08T06:23:43;3.10;99.90
14014;DHT22;49110;52.584;13.408;2023-03-08T06:24:43;3.10;99.90
14014;DHT22;49110;52.584;13.408;2023-03-08T06:25:48;3.10;99.90
14014;DHT22;49110;52.584;13.408;2023-03-08T06:26:49;3.10;99.90
14014;DHT22;49110;52.584;13.408;2023-03-08T06:27:49;3.10;99.90